sensor_id;sensor_type;location;lat;lon;timestamp;P1;durP1;ratioP1;P2;durP2;ratioP2
33184;SDS011;19550;42.872;25.494;2023-07-28T00:00:57;2.83;;;2.20;;
33184;SDS011;19550;42.872;25.494;2023-07-28T00:03:25;4.35;;;2.22;;
33184;SDS011;19550;42.872;25.494;2023-07-28T00:05:52;3.55;;;1.88;;
33184;SDS011;19550;42.872;25.494;2023-07-28T00:08:19;3.97;;;2.22;;
33184;SDS011;19550;42.872;25.494;2023-07-28T00:10:46;4.05;;;1.98;;
33184;SDS011;19550;42.872;25.494;2023-07-28T00:13:12;3.13;;;2.17;;
33184;SDS011;19550;42.872;25.494;2023-07-28T00:15:39;5.40;;;2.20;;
33184;SDS011;19550;42.872;25.494;2023-07-28T00:18:06;4.75;;;2.40;;
33184;SDS011;19550;42.872;25.494;2023-07-28T00:20:34;4.95;;;2.30;;
33184;SDS011;19550;42.872;25.494;2023-07-28T00:23:01;4.93;;;2.35;;
33184;SDS011;19550;42.872;25.494;2023-07-28T00:25:28;3.05;;;2.00;;
33184;SDS011;19550;42.872;25.494;2023-07-28T00:27:55;4.22;;;2.22;;
33184;SDS011;19550;42.872;25.494;2023-07-28T00:30:21;3.08;;;2.00;;
33184;SDS011;19550;42.872;25.494;2023-07-28T00:32:48;3.20;;;2.30;;
33184;SDS011;19550;42.872;25.494;2023-07-28T00:35:15;4.28;;;2.22;;
33184;SDS011;19550;42.872;25.494;2023-07-28T00:37:43;3.50;;;2.20;;
33184;SDS011;19550;42.872;25.494;2023-07-28T00:40:11;2.78;;;2.17;;
33184;SDS011;19550;42.872;25.494;2023-07-28T00:42:38;2.10;;;1.90;;
33184;SDS011;19550;42.872;25.494;2023-07-28T00:45:05;4.40;;;2.33;;
33184;SDS011;19550;42.872;25.494;2023-07-28T00:47:33;5.38;;;2.40;;
33184;SDS011;19550;42.872;25.494;2023-07-28T00:50:00;2.35;;;1.85;;
33184;SDS011;19550;42.872;25.494;2023-07-28T00:52:28;2.75;;;2.10;;
33184;SDS011;19550;42.872;25.494;2023-07-28T00:54:56;6.45;;;2.40;;
33184;SDS011;19550;42.872;25.494;2023-07-28T00:57:23;4.00;;;2.25;;
33184;SDS011;19550;42.872;25.494;2023-07-28T00:59:50;3.83;;;2.50;;
33184;SDS011;19550;42.872;25.494;2023-07-28T01:02:17;7.13;;;2.40;;
33184;SDS011;19550;42.872;25.494;2023-07-28T01:04:44;3.45;;;2.47;;
33184;SDS011;19550;42.872;25.494;2023-07-28T01:07:13;3.55;;;2.58;;
33184;SDS011;19550;42.872;25.494;2023-07-28T01:09:46;3.05;;;2.40;;
33184;SDS011;19550;42.872;25.494;2023-07-28T01:12:18;3.95;;;2.72;;
33184;SDS011;19550;42.872;25.494;2023-07-28T01:14:45;4.60;;;2.35;;
33184;SDS011;19550;42.872;25.494;2023-07-28T01:17:11;3.78;;;2.65;;
33184;SDS011;19550;42.872;25.494;2023-07-28T01:19:38;3.92;;;2.63;;
33184;SDS011;19550;42.872;25.494;2023-07-28T01:22:16;5.72;;;2.90;;
33184;SDS011;19550;42.872;25.494;2023-07-28T01:25:00;3.10;;;2.55;;
33184;SDS011;19550;42.872;25.494;2023-07-28T01:27:34;2.85;;;2.30;;
33184;SDS011;19550;42.872;25.494;2023-07-28T01:30:02;4.10;;;3.10;;
33184;SDS011;19550;42.872;25.494;2023-07-28T01:32:29;5.18;;;3.17;;
33184;SDS011;19550;42.872;25.494;2023-07-28T01:34:56;4.80;;;3.10;;
33184;SDS011;19550;42.872;25.494;2023-07-28T01:37:23;3.95;;;3.55;;
33184;SDS011;19550;42.872;25.494;2023-07-28T01:39:50;8.35;;;3.45;;
33184;SDS011;19550;42.872;25.494;2023-07-28T01:42:17;3.83;;;2.90;;
33184;SDS011;19550;42.872;25.494;2023-07-28T01:44:45;5.72;;;3.10;;
33184;SDS011;19550;42.872;25.494;2023-07-28T01:47:12;4.45;;;2.55;;
33184;SDS011;19550;42.872;25.494;2023-07-28T01:49:39;6.38;;;3.10;;
33184;SDS011;19550;42.872;25.494;2023-07-28T01:52:06;4.68;;;3.00;;
33184;SDS011;19550;42.872;25.494;2023-07-28T01:54:33;3.80;;;3.00;;
33184;SDS011;19550;42.872;25.494;2023-07-28T01:57:00;3.80;;;2.75;;
33184;SDS011;19550;42.872;25.494;2023-07-28T01:59:26;5.88;;;3.10;;
33184;SDS011;19550;42.872;25.494;2023-07-28T02:01:55;5.45;;;3.10;;
33184;SDS011;19550;42.872;25.494;2023-07-28T02:04:23;4.50;;;2.80;;
33184;SDS011;19550;42.872;25.494;2023-07-28T02:06:50;5.63;;;2.83;;
33184;SDS011;19550;42.872;25.494;2023-07-28T02:09:16;3.45;;;2.53;;
33184;SDS011;19550;42.872;25.494;2023-07-28T02:11:43;4.15;;;2.65;;
33184;SDS011;19550;42.872;25.494;2023-07-28T02:14:10;6.50;;;2.80;;
33184;SDS011;19550;42.872;25.494;2023-07-28T02:16:37;4.95;;;2.97;;
33184;SDS011;19550;42.872;25.494;2023-07-28T02:19:05;5.30;;;2.92;;
33184;SDS011;19550;42.872;25.494;2023-07-28T02:21:33;3.47;;;2.50;;
33184;SDS011;19550;42.872;25.494;2023-07-28T02:23:59;6.88;;;2.85;;
33184;SDS011;19550;42.872;25.494;2023-07-28T02:26:26;3.05;;;2.75;;
33184;SDS011;19550;42.872;25.494;2023-07-28T02:28:53;6.75;;;2.90;;
33184;SDS011;19550;42.872;25.494;2023-07-28T02:31:20;6.03;;;2.80;;
33184;SDS011;19550;42.872;25.494;2023-07-28T02:33:47;7.00;;;3.28;;
33184;SDS011;19550;42.872;25.494;2023-07-28T02:36:15;3.03;;;2.80;;
33184;SDS011;19550;42.872;25.494;2023-07-28T02:38:42;3.17;;;2.72;;
33184;SDS011;19550;42.872;25.494;2023-07-28T02:41:08;3.88;;;3.00;;
33184;SDS011;19550;42.872;25.494;2023-07-28T02:43:35;5.40;;;3.03;;
33184;SDS011;19550;42.872;25.494;2023-07-28T02:46:02;4.35;;;2.50;;
33184;SDS011;19550;42.872;25.494;2023-07-28T02:48:29;4.13;;;3.13;;
33184;SDS011;19550;42.872;25.494;2023-07-28T02:50:56;6.32;;;3.40;;
33184;SDS011;19550;42.872;25.494;2023-07-28T02:53:24;4.72;;;3.15;;
33184;SDS011;19550;42.872;25.494;2023-07-28T02:55:51;5.22;;;3.05;;
33184;SDS011;19550;42.872;25.494;2023-07-28T02:58:19;6.10;;;3.03;;
33184;SDS011;19550;42.872;25.494;2023-07-28T03:00:45;4.60;;;3.05;;
33184;SDS011;19550;42.872;25.494;2023-07-28T03:03:12;4.57;;;2.67;;
33184;SDS011;19550;42.872;25.494;2023-07-28T03:05:39;3.45;;;2.70;;
33184;SDS011;19550;42.872;25.494;2023-07-28T03:08:06;4.90;;;3.15;;
33184;SDS011;19550;42.872;25.494;2023-07-28T03:10:34;3.97;;;3.15;;
33184;SDS011;19550;42.872;25.494;2023-07-28T03:13:01;5.03;;;3.33;;
33184;SDS011;19550;42.872;25.494;2023-07-28T03:15:28;7.10;;;3.15;;
33184;SDS011;19550;42.872;25.494;2023-07-28T03:17:55;5.85;;;3.10;;
33184;SDS011;19550;42.872;25.494;2023-07-28T03:20:21;4.75;;;3.20;;
33184;SDS011;19550;42.872;25.494;2023-07-28T03:22:48;4.82;;;3.30;;
33184;SDS011;19550;42.872;25.494;2023-07-28T03:25:15;4.18;;;2.83;;
33184;SDS011;19550;42.872;25.494;2023-07-28T03:27:43;6.22;;;3.33;;
33184;SDS011;19550;42.872;25.494;2023-07-28T03:30:10;5.32;;;3.13;;
33184;SDS011;19550;42.872;25.494;2023-07-28T03:32:37;4.05;;;3.00;;
33184;SDS011;19550;42.872;25.494;2023-07-28T03:35:04;3.92;;;3.30;;
33184;SDS011;19550;42.872;25.494;2023-07-28T03:37:32;4.40;;;3.25;;
33184;SDS011;19550;42.872;25.494;2023-07-28T03:39:59;7.53;;;3.65;;
33184;SDS011;19550;42.872;25.494;2023-07-28T03:42:26;5.75;;;3.55;;
33184;SDS011;19550;42.872;25.494;2023-07-28T03:44:55;8.60;;;3.70;;
33184;SDS011;19550;42.872;25.494;2023-07-28T03:47:22;8.82;;;3.83;;
33184;SDS011;19550;42.872;25.494;2023-07-28T03:49:49;4.25;;;3.50;;
33184;SDS011;19550;42.872;25.494;2023-07-28T03:52:15;5.28;;;3.38;;
33184;SDS011;19550;42.872;25.494;2023-07-28T03:54:42;5.55;;;3.88;;
33184;SDS011;19550;42.872;25.494;2023-07-28T03:57:09;5.38;;;3.20;;
33184;SDS011;19550;42.872;25.494;2023-07-28T03:59:36;7.75;;;3.55;;
33184;SDS011;19550;42.872;25.494;2023-07-28T04:02:04;3.88;;;2.95;;
33184;SDS011;19550;42.872;25.494;2023-07-28T04:04:31;4.68;;;3.25;;
33184;SDS011;19550;42.872;25.494;2023-07-28T04:06:59;4.28;;;3.03;;
33184;SDS011;19550;42.872;25.494;2023-07-28T04:09:27;5.13;;;3.08;;
33184;SDS011;19550;42.872;25.494;2023-07-28T04:11:54;6.20;;;4.05;;
33184;SDS011;19550;42.872;25.494;2023-07-28T04:14:21;5.75;;;3.97;;
33184;SDS011;19550;42.872;25.494;2023-07-28T04:16:47;6.35;;;3.45;;
33184;SDS011;19550;42.872;25.494;2023-07-28T04:19:16;7.72;;;3.15;;
33184;SDS011;19550;42.872;25.494;2023-07-28T04:21:45;4.10;;;3.00;;
33184;SDS011;19550;42.872;25.494;2023-07-28T04:24:12;5.00;;;3.45;;
33184;SDS011;19550;42.872;25.494;2023-07-28T04:26:42;11.00;;;3.75;;
33184;SDS011;19550;42.872;25.494;2023-07-28T04:29:09;7.65;;;3.10;;
33184;SDS011;19550;42.872;25.494;2023-07-28T04:31:35;5.70;;;4.30;;
33184;SDS011;19550;42.872;25.494;2023-07-28T04:34:08;6.97;;;3.58;;
33184;SDS011;19550;42.872;25.494;2023-07-28T04:36:36;9.50;;;3.35;;
33184;SDS011;19550;42.872;25.494;2023-07-28T04:39:03;7.88;;;3.00;;
33184;SDS011;19550;42.872;25.494;2023-07-28T04:41:29;5.22;;;3.15;;
33184;SDS011;19550;42.872;25.494;2023-07-28T04:43:56;7.10;;;3.55;;
33184;SDS011;19550;42.872;25.494;2023-07-28T04:46:23;5.88;;;3.40;;
33184;SDS011;19550;42.872;25.494;2023-07-28T04:48:50;6.97;;;3.38;;
33184;SDS011;19550;42.872;25.494;2023-07-28T04:51:17;5.72;;;3.10;;
33184;SDS011;19550;42.872;25.494;2023-07-28T04:53:45;5.47;;;3.25;;
33184;SDS011;19550;42.872;25.494;2023-07-28T04:56:12;7.07;;;3.33;;
33184;SDS011;19550;42.872;25.494;2023-07-28T04:58:39;5.68;;;3.40;;
33184;SDS011;19550;42.872;25.494;2023-07-28T05:01:06;3.92;;;2.97;;
33184;SDS011;19550;42.872;25.494;2023-07-28T05:03:34;7.20;;;3.00;;
33184;SDS011;19550;42.872;25.494;2023-07-28T05:06:02;4.13;;;2.63;;
33184;SDS011;19550;42.872;25.494;2023-07-28T05:08:29;6.55;;;3.00;;
33184;SDS011;19550;42.872;25.494;2023-07-28T05:10:57;3.80;;;2.55;;
33184;SDS011;19550;42.872;25.494;2023-07-28T05:13:24;4.60;;;2.95;;
33184;SDS011;19550;42.872;25.494;2023-07-28T05:15:51;5.45;;;2.78;;
33184;SDS011;19550;42.872;25.494;2023-07-28T05:18:18;7.25;;;2.70;;
33184;SDS011;19550;42.872;25.494;2023-07-28T05:20:44;4.05;;;2.75;;
33184;SDS011;19550;42.872;25.494;2023-07-28T05:23:11;5.47;;;3.20;;
33184;SDS011;19550;42.872;25.494;2023-07-28T05:25:38;10.63;;;3.78;;
33184;SDS011;19550;42.872;25.494;2023-07-28T05:28:06;6.45;;;3.63;;
33184;SDS011;19550;42.872;25.494;2023-07-28T05:30:33;5.05;;;3.17;;
33184;SDS011;19550;42.872;25.494;2023-07-28T05:33:00;5.55;;;3.80;;
33184;SDS011;19550;42.872;25.494;2023-07-28T05:35:27;7.05;;;3.65;;
33184;SDS011;19550;42.872;25.494;2023-07-28T05:37:54;6.82;;;4.05;;
33184;SDS011;19550;42.872;25.494;2023-07-28T05:40:21;8.52;;;3.40;;
33184;SDS011;19550;42.872;25.494;2023-07-28T05:42:48;6.85;;;2.92;;
33184;SDS011;19550;42.872;25.494;2023-07-28T05:45:16;4.20;;;2.33;;
33184;SDS011;19550;42.872;25.494;2023-07-28T05:47:43;6.72;;;3.28;;
33184;SDS011;19550;42.872;25.494;2023-07-28T05:50:09;4.93;;;2.58;;
33184;SDS011;19550;42.872;25.494;2023-07-28T05:52:36;4.05;;;2.50;;
33184;SDS011;19550;42.872;25.494;2023-07-28T05:55:03;9.55;;;2.95;;
33184;SDS011;19550;42.872;25.494;2023-07-28T05:57:31;4.65;;;3.08;;
33184;SDS011;19550;42.872;25.494;2023-07-28T05:59:57;4.07;;;2.90;;
33184;SDS011;19550;42.872;25.494;2023-07-28T06:02:26;5.82;;;2.58;;
33184;SDS011;19550;42.872;25.494;2023-07-28T06:04:52;2.92;;;2.13;;
33184;SDS011;19550;42.872;25.494;2023-07-28T06:07:19;4.55;;;2.90;;
33184;SDS011;19550;42.872;25.494;2023-07-28T06:09:46;4.63;;;2.28;;
33184;SDS011;19550;42.872;25.494;2023-07-28T06:12:13;4.25;;;2.25;;
33184;SDS011;19550;42.872;25.494;2023-07-28T06:14:41;6.13;;;2.40;;
33184;SDS011;19550;42.872;25.494;2023-07-28T06:17:08;10.70;;;2.83;;
33184;SDS011;19550;42.872;25.494;2023-07-28T06:19:36;5.38;;;2.28;;
33184;SDS011;19550;42.872;25.494;2023-07-28T06:22:03;3.30;;;2.35;;
33184;SDS011;19550;42.872;25.494;2023-07-28T06:24:30;3.38;;;2.42;;
33184;SDS011;19550;42.872;25.494;2023-07-28T06:26:57;7.43;;;3.08;;
33184;SDS011;19550;42.872;25.494;2023-07-28T06:29:24;5.30;;;2.60;;
33184;SDS011;19550;42.872;25.494;2023-07-28T06:31:51;5.78;;;2.38;;
33184;SDS011;19550;42.872;25.494;2023-07-28T06:34:18;4.57;;;2.60;;
33184;SDS011;19550;42.872;25.494;2023-07-28T06:36:46;3.60;;;2.00;;
33184;SDS011;19550;42.872;25.494;2023-07-28T06:39:13;3.65;;;2.08;;
33184;SDS011;19550;42.872;25.494;2023-07-28T06:41:40;3.72;;;1.90;;
33184;SDS011;19550;42.872;25.494;2023-07-28T06:44:06;7.80;;;2.00;;
33184;SDS011;19550;42.872;25.494;2023-07-28T06:46:34;3.28;;;1.75;;
33184;SDS011;19550;42.872;25.494;2023-07-28T06:49:01;3.83;;;1.73;;
33184;SDS011;19550;42.872;25.494;2023-07-28T06:51:28;3.30;;;1.65;;
33184;SDS011;19550;42.872;25.494;2023-07-28T06:53:56;3.78;;;1.77;;
33184;SDS011;19550;42.872;25.494;2023-07-28T06:56:23;3.45;;;1.90;;
33184;SDS011;19550;42.872;25.494;2023-07-28T06:58:50;3.65;;;1.80;;
33184;SDS011;19550;42.872;25.494;2023-07-28T07:01:17;1.67;;;1.20;;
33184;SDS011;19550;42.872;25.494;2023-07-28T07:03:44;3.15;;;1.60;;
33184;SDS011;19550;42.872;25.494;2023-07-28T07:06:10;5.50;;;1.58;;
33184;SDS011;19550;42.872;25.494;2023-07-28T07:08:37;3.88;;;1.65;;
33184;SDS011;19550;42.872;25.494;2023-07-28T07:11:05;4.30;;;1.80;;
33184;SDS011;19550;42.872;25.494;2023-07-28T07:13:32;4.13;;;1.50;;
33184;SDS011;19550;42.872;25.494;2023-07-28T07:15:59;2.90;;;1.70;;
33184;SDS011;19550;42.872;25.494;2023-07-28T07:18:26;3.40;;;1.63;;
33184;SDS011;19550;42.872;25.494;2023-07-28T07:20:53;2.78;;;1.92;;
33184;SDS011;19550;42.872;25.494;2023-07-28T07:23:20;2.10;;;1.70;;
33184;SDS011;19550;42.872;25.494;2023-07-28T07:25:48;6.93;;;1.85;;
33184;SDS011;19550;42.872;25.494;2023-07-28T07:28:17;2.50;;;1.70;;
33184;SDS011;19550;42.872;25.494;2023-07-28T07:30:44;6.82;;;2.20;;
33184;SDS011;19550;42.872;25.494;2023-07-28T07:33:11;2.88;;;1.95;;
33184;SDS011;19550;42.872;25.494;2023-07-28T07:35:38;2.60;;;1.63;;
33184;SDS011;19550;42.872;25.494;2023-07-28T07:38:05;2.83;;;1.80;;
33184;SDS011;19550;42.872;25.494;2023-07-28T07:40:34;5.80;;;1.77;;
33184;SDS011;19550;42.872;25.494;2023-07-28T07:43:01;2.35;;;1.70;;
33184;SDS011;19550;42.872;25.494;2023-07-28T07:45:30;3.40;;;1.55;;
33184;SDS011;19550;42.872;25.494;2023-07-28T07:47:57;2.03;;;1.70;;
33184;SDS011;19550;42.872;25.494;2023-07-28T07:50:24;2.60;;;1.70;;
33184;SDS011;19550;42.872;25.494;2023-07-28T07:52:51;2.97;;;1.52;;
33184;SDS011;19550;42.872;25.494;2023-07-28T07:55:18;2.25;;;1.67;;
33184;SDS011;19550;42.872;25.494;2023-07-28T07:57:45;3.58;;;1.73;;
33184;SDS011;19550;42.872;25.494;2023-07-28T08:00:12;13.02;;;2.28;;
33184;SDS011;19550;42.872;25.494;2023-07-28T08:02:41;2.70;;;2.00;;
33184;SDS011;19550;42.872;25.494;2023-07-28T08:05:08;3.08;;;1.60;;
33184;SDS011;19550;42.872;25.494;2023-07-28T08:07:35;2.75;;;1.38;;
33184;SDS011;19550;42.872;25.494;2023-07-28T08:10:02;1.85;;;1.60;;
33184;SDS011;19550;42.872;25.494;2023-07-28T08:12:29;2.53;;;1.60;;
33184;SDS011;19550;42.872;25.494;2023-07-28T08:14:56;3.70;;;1.50;;
33184;SDS011;19550;42.872;25.494;2023-07-28T08:17:23;2.40;;;1.60;;
33184;SDS011;19550;42.872;25.494;2023-07-28T08:19:51;2.92;;;1.48;;
33184;SDS011;19550;42.872;25.494;2023-07-28T08:22:18;2.85;;;1.77;;
33184;SDS011;19550;42.872;25.494;2023-07-28T08:24:44;1.95;;;1.23;;
33184;SDS011;19550;42.872;25.494;2023-07-28T08:27:11;3.17;;;1.40;;
33184;SDS011;19550;42.872;25.494;2023-07-28T08:29:38;2.75;;;1.83;;
33184;SDS011;19550;42.872;25.494;2023-07-28T08:32:05;3.42;;;1.77;;
33184;SDS011;19550;42.872;25.494;2023-07-28T08:34:33;1.60;;;1.40;;
33184;SDS011;19550;42.872;25.494;2023-07-28T08:37:01;3.22;;;1.77;;
33184;SDS011;19550;42.872;25.494;2023-07-28T08:39:28;3.42;;;1.70;;
33184;SDS011;19550;42.872;25.494;2023-07-28T08:41:58;6.45;;;1.63;;
33184;SDS011;19550;42.872;25.494;2023-07-28T08:44:25;2.28;;;1.80;;
33184;SDS011;19550;42.872;25.494;2023-07-28T08:46:53;4.63;;;1.60;;
33184;SDS011;19550;42.872;25.494;2023-07-28T08:49:19;3.65;;;1.52;;
33184;SDS011;19550;42.872;25.494;2023-07-28T08:51:48;3.53;;;1.80;;
33184;SDS011;19550;42.872;25.494;2023-07-28T08:54:17;3.67;;;2.03;;
33184;SDS011;19550;42.872;25.494;2023-07-28T08:56:44;1.70;;;1.30;;
33184;SDS011;19550;42.872;25.494;2023-07-28T08:59:15;4.77;;;1.60;;
33184;SDS011;19550;42.872;25.494;2023-07-28T09:01:49;3.35;;;1.50;;
33184;SDS011;19550;42.872;25.494;2023-07-28T09:04:16;2.22;;;1.63;;
33184;SDS011;19550;42.872;25.494;2023-07-28T09:06:44;1.85;;;1.60;;
33184;SDS011;19550;42.872;25.494;2023-07-28T09:09:11;1.83;;;1.45;;
33184;SDS011;19550;42.872;25.494;2023-07-28T09:11:44;3.95;;;1.67;;
33184;SDS011;19550;42.872;25.494;2023-07-28T09:14:12;2.15;;;1.75;;
33184;SDS011;19550;42.872;25.494;2023-07-28T09:16:39;2.22;;;1.70;;
33184;SDS011;19550;42.872;25.494;2023-07-28T09:19:07;1.85;;;1.40;;
33184;SDS011;19550;42.872;25.494;2023-07-28T09:21:34;4.20;;;1.60;;
33184;SDS011;19550;42.872;25.494;2023-07-28T09:24:03;1.60;;;1.23;;
33184;SDS011;19550;42.872;25.494;2023-07-28T09:26:36;3.05;;;2.03;;
33184;SDS011;19550;42.872;25.494;2023-07-28T09:29:11;4.32;;;1.70;;
33184;SDS011;19550;42.872;25.494;2023-07-28T09:31:39;2.42;;;1.48;;
33184;SDS011;19550;42.872;25.494;2023-07-28T09:34:06;2.08;;;1.60;;
33184;SDS011;19550;42.872;25.494;2023-07-28T09:36:34;2.00;;;1.50;;
33184;SDS011;19550;42.872;25.494;2023-07-28T09:39:03;5.38;;;1.67;;
33184;SDS011;19550;42.872;25.494;2023-07-28T09:41:32;2.38;;;1.60;;
33184;SDS011;19550;42.872;25.494;2023-07-28T09:44:01;2.88;;;1.17;;
33184;SDS011;19550;42.872;25.494;2023-07-28T09:46:29;2.97;;;1.60;;
33184;SDS011;19550;42.872;25.494;2023-07-28T09:49:00;2.42;;;1.48;;
33184;SDS011;19550;42.872;25.494;2023-07-28T09:51:31;2.15;;;1.70;;
33184;SDS011;19550;42.872;25.494;2023-07-28T09:54:02;4.35;;;1.73;;
33184;SDS011;19550;42.872;25.494;2023-07-28T09:56:31;4.38;;;1.38;;
33184;SDS011;19550;42.872;25.494;2023-07-28T09:58:59;2.55;;;1.55;;
33184;SDS011;19550;42.872;25.494;2023-07-28T10:01:31;4.65;;;1.40;;
33184;SDS011;19550;42.872;25.494;2023-07-28T10:03:59;3.53;;;1.80;;
33184;SDS011;19550;42.872;25.494;2023-07-28T10:06:27;2.03;;;1.42;;
33184;SDS011;19550;42.872;25.494;2023-07-28T10:08:55;3.55;;;1.52;;
33184;SDS011;19550;42.872;25.494;2023-07-28T10:11:22;4.35;;;1.40;;
33184;SDS011;19550;42.872;25.494;2023-07-28T10:13:51;1.85;;;1.50;;
33184;SDS011;19550;42.872;25.494;2023-07-28T10:16:28;4.03;;;1.50;;
33184;SDS011;19550;42.872;25.494;2023-07-28T10:19:03;2.40;;;1.48;;
33184;SDS011;19550;42.872;25.494;2023-07-28T10:21:30;1.30;;;1.20;;
33184;SDS011;19550;42.872;25.494;2023-07-28T10:23:58;1.98;;;1.42;;
33184;SDS011;19550;42.872;25.494;2023-07-28T10:26:31;4.30;;;1.50;;
33184;SDS011;19550;42.872;25.494;2023-07-28T10:29:08;1.90;;;1.50;;
33184;SDS011;19550;42.872;25.494;2023-07-28T10:31:50;2.65;;;1.48;;
33184;SDS011;19550;42.872;25.494;2023-07-28T10:34:17;2.53;;;1.47;;
33184;SDS011;19550;42.872;25.494;2023-07-28T10:36:44;1.20;;;1.10;;
33184;SDS011;19550;42.872;25.494;2023-07-28T10:39:14;2.67;;;1.58;;
33184;SDS011;19550;42.872;25.494;2023-07-28T10:44:29;4.70;;;1.65;;
33184;SDS011;19550;42.872;25.494;2023-07-28T10:46:58;2.05;;;1.40;;
33184;SDS011;19550;42.872;25.494;2023-07-28T10:49:25;1.50;;;1.40;;
33184;SDS011;19550;42.872;25.494;2023-07-28T10:51:52;3.28;;;1.70;;
33184;SDS011;19550;42.872;25.494;2023-07-28T10:54:19;1.98;;;1.50;;
33184;SDS011;19550;42.872;25.494;2023-07-28T10:56:46;2.72;;;1.60;;
33184;SDS011;19550;42.872;25.494;2023-07-28T10:59:13;1.90;;;1.70;;
33184;SDS011;19550;42.872;25.494;2023-07-28T11:01:41;1.83;;;1.65;;
33184;SDS011;19550;42.872;25.494;2023-07-28T11:04:11;2.63;;;1.63;;
33184;SDS011;19550;42.872;25.494;2023-07-28T11:06:41;2.35;;;1.50;;
33184;SDS011;19550;42.872;25.494;2023-07-28T11:09:09;2.33;;;1.60;;
33184;SDS011;19550;42.872;25.494;2023-07-28T11:11:36;2.50;;;1.48;;
33184;SDS011;19550;42.872;25.494;2023-07-28T11:14:04;2.63;;;1.55;;
33184;SDS011;19550;42.872;25.494;2023-07-28T11:16:33;4.43;;;1.58;;
33184;SDS011;19550;42.872;25.494;2023-07-28T11:19:00;2.55;;;1.80;;
33184;SDS011;19550;42.872;25.494;2023-07-28T11:21:29;2.28;;;1.55;;
33184;SDS011;19550;42.872;25.494;2023-07-28T11:23:56;3.47;;;1.40;;
33184;SDS011;19550;42.872;25.494;2023-07-28T11:26:23;1.50;;;1.40;;
33184;SDS011;19550;42.872;25.494;2023-07-28T11:28:50;1.65;;;1.55;;
33184;SDS011;19550;42.872;25.494;2023-07-28T11:31:18;4.05;;;1.70;;
33184;SDS011;19550;42.872;25.494;2023-07-28T11:33:50;2.35;;;1.40;;
33184;SDS011;19550;42.872;25.494;2023-07-28T11:36:21;1.70;;;1.60;;
33184;SDS011;19550;42.872;25.494;2023-07-28T11:38:50;2.05;;;1.50;;
33184;SDS011;19550;42.872;25.494;2023-07-28T11:41:17;2.70;;;1.80;;
33184;SDS011;19550;42.872;25.494;2023-07-28T11:43:45;2.40;;;2.05;;
33184;SDS011;19550;42.872;25.494;2023-07-28T11:49:06;1.67;;;1.40;;
33184;SDS011;19550;42.872;25.494;2023-07-28T11:51:37;2.17;;;1.77;;
33184;SDS011;19550;42.872;25.494;2023-07-28T11:54:06;2.35;;;1.83;;
33184;SDS011;19550;42.872;25.494;2023-07-28T11:56:33;3.55;;;1.58;;
33184;SDS011;19550;42.872;25.494;2023-07-28T11:59:00;1.92;;;1.65;;
33184;SDS011;19550;42.872;25.494;2023-07-28T12:01:28;2.65;;;2.00;;
33184;SDS011;19550;42.872;25.494;2023-07-28T12:03:55;3.42;;;1.42;;
33184;SDS011;19550;42.872;25.494;2023-07-28T12:06:23;2.88;;;1.40;;
33184;SDS011;19550;42.872;25.494;2023-07-28T12:08:50;3.25;;;1.75;;
33184;SDS011;19550;42.872;25.494;2023-07-28T12:11:20;2.50;;;1.70;;
33184;SDS011;19550;42.872;25.494;2023-07-28T12:13:49;2.45;;;1.50;;
33184;SDS011;19550;42.872;25.494;2023-07-28T12:16:30;1.92;;;1.70;;
33184;SDS011;19550;42.872;25.494;2023-07-28T12:18:58;2.28;;;1.48;;
33184;SDS011;19550;42.872;25.494;2023-07-28T12:21:24;4.60;;;1.70;;
33184;SDS011;19550;42.872;25.494;2023-07-28T12:23:51;2.13;;;1.45;;
33184;SDS011;19550;42.872;25.494;2023-07-28T12:26:19;3.50;;;1.58;;
33184;SDS011;19550;42.872;25.494;2023-07-28T12:28:46;1.98;;;1.55;;
33184;SDS011;19550;42.872;25.494;2023-07-28T12:31:13;3.88;;;1.73;;
33184;SDS011;19550;42.872;25.494;2023-07-28T12:33:40;2.38;;;1.88;;
33184;SDS011;19550;42.872;25.494;2023-07-28T12:36:07;2.13;;;1.60;;
33184;SDS011;19550;42.872;25.494;2023-07-28T12:38:34;1.73;;;1.60;;
33184;SDS011;19550;42.872;25.494;2023-07-28T12:41:01;2.08;;;1.70;;
33184;SDS011;19550;42.872;25.494;2023-07-28T12:43:30;2.42;;;1.77;;
33184;SDS011;19550;42.872;25.494;2023-07-28T12:45:56;3.38;;;1.67;;
33184;SDS011;19550;42.872;25.494;2023-07-28T12:48:23;2.20;;;1.80;;
33184;SDS011;19550;42.872;25.494;2023-07-28T12:50:50;3.47;;;1.67;;
33184;SDS011;19550;42.872;25.494;2023-07-28T12:53:17;2.80;;;1.67;;
33184;SDS011;19550;42.872;25.494;2023-07-28T12:55:44;1.65;;;1.55;;
33184;SDS011;19550;42.872;25.494;2023-07-28T12:58:10;1.73;;;1.63;;
33184;SDS011;19550;42.872;25.494;2023-07-28T13:00:39;3.83;;;1.70;;
33184;SDS011;19550;42.872;25.494;2023-07-28T13:03:06;2.40;;;1.70;;
33184;SDS011;19550;42.872;25.494;2023-07-28T13:05:33;2.70;;;1.80;;
33184;SDS011;19550;42.872;25.494;2023-07-28T13:07:59;2.25;;;1.80;;
33184;SDS011;19550;42.872;25.494;2023-07-28T13:10:26;1.70;;;1.60;;
33184;SDS011;19550;42.872;25.494;2023-07-28T13:12:53;1.80;;;1.70;;
33184;SDS011;19550;42.872;25.494;2023-07-28T13:15:20;2.50;;;1.40;;
33184;SDS011;19550;42.872;25.494;2023-07-28T13:17:48;2.95;;;1.50;;
33184;SDS011;19550;42.872;25.494;2023-07-28T13:20:15;2.08;;;1.50;;
33184;SDS011;19550;42.872;25.494;2023-07-28T13:22:42;5.20;;;1.73;;
33184;SDS011;19550;42.872;25.494;2023-07-28T13:25:08;4.35;;;1.90;;
33184;SDS011;19550;42.872;25.494;2023-07-28T13:27:35;1.85;;;1.75;;
33184;SDS011;19550;42.872;25.494;2023-07-28T13:30:02;2.53;;;1.50;;
33184;SDS011;19550;42.872;25.494;2023-07-28T13:32:30;2.15;;;1.67;;
33184;SDS011;19550;42.872;25.494;2023-07-28T13:34:58;6.07;;;1.65;;
33184;SDS011;19550;42.872;25.494;2023-07-28T13:37:25;1.60;;;1.50;;
33184;SDS011;19550;42.872;25.494;2023-07-28T13:39:52;2.35;;;1.58;;
33184;SDS011;19550;42.872;25.494;2023-07-28T13:42:19;1.95;;;1.70;;
33184;SDS011;19550;42.872;25.494;2023-07-28T13:44:45;1.73;;;1.58;;
33184;SDS011;19550;42.872;25.494;2023-07-28T13:47:13;2.10;;;1.90;;
33184;SDS011;19550;42.872;25.494;2023-07-28T13:49:40;4.45;;;1.77;;
33184;SDS011;19550;42.872;25.494;2023-07-28T13:52:08;2.47;;;1.88;;
33184;SDS011;19550;42.872;25.494;2023-07-28T13:54:35;2.00;;;1.73;;
33184;SDS011;19550;42.872;25.494;2023-07-28T13:57:01;2.95;;;1.60;;
33184;SDS011;19550;42.872;25.494;2023-07-28T13:59:28;1.83;;;1.55;;
33184;SDS011;19550;42.872;25.494;2023-07-28T14:01:55;2.75;;;1.75;;
33184;SDS011;19550;42.872;25.494;2023-07-28T14:04:23;1.48;;;1.38;;
33184;SDS011;19550;42.872;25.494;2023-07-28T14:06:50;1.75;;;1.65;;
33184;SDS011;19550;42.872;25.494;2023-07-28T14:09:18;1.85;;;1.70;;
33184;SDS011;19550;42.872;25.494;2023-07-28T14:11:45;2.00;;;1.80;;
33184;SDS011;19550;42.872;25.494;2023-07-28T14:14:12;2.60;;;1.63;;
33184;SDS011;19550;42.872;25.494;2023-07-28T14:16:39;2.50;;;1.95;;
33184;SDS011;19550;42.872;25.494;2023-07-28T14:19:05;1.75;;;1.63;;
33184;SDS011;19550;42.872;25.494;2023-07-28T14:21:32;2.20;;;1.65;;
33184;SDS011;19550;42.872;25.494;2023-07-28T14:23:59;4.75;;;1.95;;
33184;SDS011;19550;42.872;25.494;2023-07-28T14:26:27;4.47;;;1.98;;
33184;SDS011;19550;42.872;25.494;2023-07-28T14:28:54;2.75;;;1.70;;
33184;SDS011;19550;42.872;25.494;2023-07-28T14:31:21;3.22;;;1.80;;
33184;SDS011;19550;42.872;25.494;2023-07-28T14:33:48;4.28;;;1.80;;
33184;SDS011;19550;42.872;25.494;2023-07-28T14:36:15;2.17;;;1.52;;
33184;SDS011;19550;42.872;25.494;2023-07-28T14:38:42;2.70;;;1.88;;
33184;SDS011;19550;42.872;25.494;2023-07-28T14:41:09;1.75;;;1.63;;